Farmersville, CA (93223)

11:49 PM PST on November 22, 2014 (GMT -0800)
HWY198 | Change Station
CLOSE
Current Station
Personal Weather Station
Location: Farmersville, CA
Elevation: 377 ft
Nearby Weather Stations

Elev 377 ft 36.32 °N, 119.21 °W | Updated 38 seconds ago

Overcast
Overcast
55.0 °F
Feels Like 55.0 °F
N
0.9
Wind Variable Wind from NW
Gusts 3.0 mph

Today
High -- | Low -- °F
--% Chance of Precip.
Yesterday
High -- | Low -- °F
Precip. -- in
6:41 AM 4:44 PM
New Moon, 1% visible
Pressure 30.17 in
Visibility 7.0 miles
Clouds Overcast 2600 ft
Dew Point 53 °F
Humidity 93%
Rainfall 0.02 in
Snow Depth Not available.
UV 0 out of 12
Pollen 1.40 out of 12
Air Quality Not available.
Flu Activity Not available.
METAR KVIS 230735Z 32006KT 7SM OVC026 12/09 A3017 RMK AO1

More Conditions Fewer Conditions

Pressure 30.17 in
Visibility 7.0 miles
Clouds Overcast 2600 ft
Dew Point 53 °F
Humidity 93%
Rainfall 0.02 in
Snow Depth Not available.
UV 0 out of 12
Pollen 1.40 out of 12
Air Quality Not available.
Flu Activity Not available.
METAR KVIS 230735Z 32006KT 7SM OVC026 12/09 A3017 RMK AO1

More Conditions Fewer Conditions

10-Day Weather Forecast

Almanac

Astronomy

Nov. 22, 2014 Rise Set
Actual Time
Civil Twilight
Nautical Twilight
Astronomical Twilight
Moon
Length of Visible Light
Length of Day
Tomorrow will be .
, % of the Moon is Illuminated

Today's Extremes

State Highs State Lows

Community

WunderPhotos

Upload Photos

1,773,024 photos uploaded!

WunderBlogs® & News

Nearby

Air Quality

  Air Quality AQ Index Pollutant
Not available.

Snow Depth

Station Depth Elevation

Earthquake Activity

City Distance Mag. Time & Date
Minimum magnitude displayed is 2.5.

Coastal Water Temperatures

Place Temperature

Nearby Weather Stations